createdAt,value
2019-03-31T00:01:51.336Z,100818.23
2019-03-31T00:04:19.332Z,100817.45
2019-03-31T00:06:47.342Z,100817.09
2019-03-31T00:09:15.344Z,100820.16
2019-03-31T00:11:43.393Z,100815.92
2019-03-31T00:14:11.662Z,100812.84
2019-03-31T00:16:39.596Z,100815.73
2019-03-31T00:19:07.587Z,100813.37
2019-03-31T00:21:35.547Z,100816.20
2019-03-31T00:24:03.638Z,100818.30
2019-03-31T00:26:31.575Z,100814.08
2019-03-31T00:28:59.522Z,100814.47
2019-03-31T00:31:27.457Z,100809.17
2019-03-31T00:33:55.442Z,100813.09
2019-03-31T00:36:23.363Z,100811.81
2019-03-31T00:38:51.372Z,100822.64
2019-03-31T00:41:19.302Z,100822.22
2019-03-31T00:43:47.318Z,100821.95
2019-03-31T00:46:15.911Z,100823.64
2019-03-31T00:48:43.935Z,100822.63
2019-03-31T00:51:11.851Z,100823.53
2019-03-31T00:53:39.867Z,100823.63
2019-03-31T00:56:07.801Z,100816.42
2019-03-31T00:58:35.827Z,100821.25
2019-03-31T01:01:35.413Z,100815.52
2019-03-31T01:03:51.586Z,100823.13
2019-03-31T01:06:21.427Z,100817.73
2019-03-31T01:08:49.429Z,100812.12
2019-03-31T01:11:21.807Z,100815.67
2019-03-31T01:13:49.808Z,100828.24
2019-03-31T01:16:18.341Z,100831.61
2019-03-31T01:18:46.307Z,100829.41
2019-03-31T01:21:14.447Z,100829.59
2019-03-31T01:23:42.527Z,100832.84
2019-03-31T01:26:10.777Z,100831.61
2019-03-31T01:28:38.807Z,100837.06
2019-03-31T01:31:06.862Z,100838.94
2019-03-31T01:33:35.260Z,100836.79
2019-03-31T01:36:03.413Z,100829.67
2019-03-31T01:38:31.497Z,100828.81
2019-03-31T01:40:59.452Z,100829.34
2019-03-31T01:43:29.699Z,100834.38
2019-03-31T01:45:58.420Z,100835.31
2019-03-31T01:48:26.406Z,100833.88
2019-03-31T01:50:54.332Z,100836.09
2019-03-31T01:53:22.307Z,100850.58
2019-03-31T01:55:50.235Z,100846.46
2019-03-31T01:58:18.273Z,100851.40
2019-03-31T02:00:51.322Z,100851.70
2019-03-31T02:03:19.315Z,100852.83
2019-03-31T02:05:47.232Z,100856.01
2019-03-31T02:08:15.270Z,100861.06
2019-03-31T02:10:43.243Z,100857.37
2019-03-31T02:13:11.186Z,100849.67
2019-03-31T02:15:39.207Z,100851.34
2019-03-31T02:18:07.247Z,100861.81
2019-03-31T02:20:35.221Z,100855.62
2019-03-31T02:23:03.256Z,100863.41
2019-03-31T02:25:31.287Z,100863.50
2019-03-31T02:27:59.231Z,100862.38
2019-03-31T02:30:27.564Z,100865.83
2019-03-31T02:32:55.505Z,100867.23
2019-03-31T02:35:23.487Z,100861.77
2019-03-31T02:37:51.416Z,100868.87
2019-03-31T02:40:19.392Z,100865.27
2019-03-31T02:42:47.326Z,100869.22
2019-03-31T02:45:15.320Z,100869.50
2019-03-31T02:47:43.233Z,100867.00
2019-03-31T02:50:17.300Z,100875.47
2019-03-31T02:52:45.238Z,100875.48
2019-03-31T02:55:13.220Z,100881.28
2019-03-31T02:57:41.387Z,100886.78
2019-03-31T03:00:09.463Z,100883.91
2019-03-31T03:02:42.214Z,100890.23
2019-03-31T03:05:19.588Z,100890.72
2019-03-31T03:07:39.951Z,100892.70
2019-03-31T03:10:08.784Z,100893.25
2019-03-31T03:12:39.506Z,100892.24
2019-03-31T03:15:07.604Z,100886.95
2019-03-31T03:17:35.548Z,100888.27
2019-03-31T03:20:03.834Z,100892.67
2019-03-31T03:22:31.742Z,100892.20
2019-03-31T03:24:59.733Z,100900.54
2019-03-31T03:27:27.677Z,100899.79
2019-03-31T03:29:56.150Z,100899.14
2019-03-31T03:32:24.138Z,100895.88
2019-03-31T03:34:52.222Z,100898.14
2019-03-31T03:37:20.174Z,100895.25
2019-03-31T03:39:48.154Z,100900.50
2019-03-31T03:42:16.104Z,100905.30
2019-03-31T03:44:44.035Z,100911.73
2019-03-31T03:47:12.029Z,100917.45
2019-03-31T03:49:40.046Z,100915.11
2019-03-31T03:52:08.162Z,100920.34
2019-03-31T03:54:36.178Z,100918.28
2019-03-31T03:57:05.199Z,100929.44
2019-03-31T03:59:33.132Z,100926.98
2019-03-31T04:02:01.123Z,100927.77
2019-03-31T04:04:29.069Z,100931.86
2019-03-31T04:06:57.089Z,100929.52
2019-03-31T04:09:25.108Z,100933.00
2019-03-31T04:11:53.083Z,100938.52
2019-03-31T04:14:21.019Z,100936.66
2019-03-31T04:16:48.985Z,100943.92
2019-03-31T04:19:16.928Z,100941.70
2019-03-31T04:21:44.910Z,100947.41
2019-03-31T04:24:12.817Z,100953.77
2019-03-31T04:26:40.782Z,100951.31
2019-03-31T04:29:08.725Z,100949.92
2019-03-31T04:31:36.702Z,100951.52
2019-03-31T04:34:04.651Z,100960.39
2019-03-31T04:36:32.718Z,100966.86
2019-03-31T04:39:00.947Z,100974.55
2019-03-31T04:41:29.157Z,100976.97
2019-03-31T04:43:57.087Z,100977.08
2019-03-31T04:46:25.067Z,100980.16
2019-03-31T04:48:53.006Z,100987.06
2019-03-31T04:51:20.971Z,100991.94
2019-03-31T04:53:48.962Z,100992.11
2019-03-31T04:56:16.962Z,100990.08
2019-03-31T04:58:45.007Z,100991.24
2019-03-31T05:01:12.966Z,100997.32
2019-03-31T05:03:40.917Z,100999.39
2019-03-31T05:06:08.922Z,101005.95
2019-03-31T05:08:36.930Z,101007.36
2019-03-31T05:11:04.997Z,101024.08
2019-03-31T05:13:32.962Z,101023.59
2019-03-31T05:16:00.977Z,101028.81
2019-03-31T05:18:29.051Z,101038.25
2019-03-31T05:20:57.037Z,101040.27
2019-03-31T05:23:24.973Z,101053.00
2019-03-31T05:25:52.957Z,101055.41
2019-03-31T05:28:20.903Z,101060.93
2019-03-31T05:30:48.947Z,101073.84
2019-03-31T05:33:16.964Z,101077.65
2019-03-31T05:35:44.931Z,101089.56
2019-03-31T05:38:12.952Z,101083.84
2019-03-31T05:40:40.978Z,101080.52
2019-03-31T05:43:08.974Z,101085.35
2019-03-31T05:45:36.951Z,101085.72
2019-03-31T05:48:04.977Z,101084.42
2019-03-31T05:50:32.892Z,101080.59
2019-03-31T05:53:00.897Z,101090.05
2019-03-31T05:55:28.826Z,101094.78
2019-03-31T05:57:57.617Z,101092.59
2019-03-31T06:00:41.883Z,101100.41
2019-03-31T06:03:09.903Z,101097.77
2019-03-31T06:05:37.851Z,101103.20
2019-03-31T06:08:05.914Z,101106.28
2019-03-31T06:10:33.826Z,101109.30
2019-03-31T06:13:01.879Z,101111.48
2019-03-31T06:15:30.448Z,101108.27
2019-03-31T06:17:58.427Z,101111.69
2019-03-31T06:20:26.386Z,101114.41
2019-03-31T06:22:54.453Z,101116.11
2019-03-31T06:25:22.534Z,101123.78
2019-03-31T06:27:50.515Z,101125.45
2019-03-31T06:30:18.619Z,101121.23
2019-03-31T06:32:46.667Z,101125.69
2019-03-31T06:35:14.637Z,101124.05
2019-03-31T06:37:42.607Z,101135.25
2019-03-31T06:40:10.652Z,101139.03
2019-03-31T06:42:38.656Z,101137.52
2019-03-31T06:45:07.188Z,101132.67
2019-03-31T06:47:35.187Z,101135.69
2019-03-31T06:50:03.903Z,101140.80
2019-03-31T06:52:31.971Z,101141.08
2019-03-31T06:54:59.887Z,101141.81
2019-03-31T06:57:27.933Z,101138.49
2019-03-31T06:59:55.902Z,101144.98
2019-03-31T07:02:23.931Z,101139.25
2019-03-31T07:05:00.804Z,101139.54
2019-03-31T07:07:23.859Z,101131.20
2019-03-31T07:09:51.572Z,101137.75
2019-03-31T07:12:19.572Z,101135.86
2019-03-31T07:14:47.572Z,101137.89
2019-03-31T07:17:15.636Z,101145.79
2019-03-31T07:19:43.686Z,101153.34
2019-03-31T07:22:11.722Z,101155.19
2019-03-31T07:24:39.695Z,101153.05
2019-03-31T07:27:07.759Z,101159.12
2019-03-31T07:29:35.692Z,101158.27
2019-03-31T07:32:04.111Z,101159.20
2019-03-31T07:34:32.156Z,101154.63
2019-03-31T07:37:00.132Z,101158.55
2019-03-31T07:39:29.572Z,101167.20
2019-03-31T07:41:59.762Z,101167.09
2019-03-31T07:44:28.171Z,101173.27
2019-03-31T07:46:58.331Z,101167.64
2019-03-31T07:49:26.368Z,101182.16
2019-03-31T07:51:54.293Z,101177.76
2019-03-31T07:54:22.902Z,101179.11
2019-03-31T07:56:51.725Z,101172.34
2019-03-31T07:59:19.761Z,101178.20
2019-03-31T08:01:48.381Z,101177.18
2019-03-31T08:04:16.387Z,101186.75
2019-03-31T08:06:44.357Z,101177.48
2019-03-31T08:09:12.418Z,101175.24
2019-03-31T08:11:40.366Z,101172.43
2019-03-31T08:14:08.487Z,101166.39
2019-03-31T08:16:36.462Z,101163.89
2019-03-31T08:19:04.436Z,101168.30
2019-03-31T08:21:32.392Z,101178.05
2019-03-31T08:24:00.477Z,101177.22
2019-03-31T08:26:28.840Z,101175.81
2019-03-31T08:28:58.597Z,101180.74
2019-03-31T08:31:26.727Z,101183.30
2019-03-31T08:33:54.717Z,101189.22
2019-03-31T08:36:22.667Z,101182.54
2019-03-31T08:38:50.687Z,101182.98
2019-03-31T08:41:18.769Z,101189.27
2019-03-31T08:43:47.167Z,101196.45
2019-03-31T08:46:15.601Z,101201.43
2019-03-31T08:48:44.245Z,101205.92
2019-03-31T08:51:12.257Z,101208.63
2019-03-31T08:53:42.481Z,101207.48
2019-03-31T08:56:10.432Z,101216.03
2019-03-31T08:58:39.108Z,101208.99
2019-03-31T09:01:10.826Z,101216.15
2019-03-31T09:03:38.857Z,101217.42
2019-03-31T09:06:06.793Z,101207.91
2019-03-31T09:08:34.786Z,101210.98
2019-03-31T09:11:04.354Z,101218.30
2019-03-31T09:13:32.317Z,101214.39
2019-03-31T09:16:00.429Z,101217.99
2019-03-31T09:18:28.438Z,101220.11
2019-03-31T09:20:56.342Z,101228.35
2019-03-31T09:23:24.355Z,101229.18
2019-03-31T09:25:53.293Z,101237.70
2019-03-31T09:28:21.267Z,101233.87
2019-03-31T09:30:49.392Z,101237.79
2019-03-31T09:33:17.362Z,101241.36
2019-03-31T09:35:45.327Z,101235.55
2019-03-31T09:38:13.328Z,101241.80
2019-03-31T09:40:41.349Z,101251.64
2019-03-31T09:43:09.455Z,101251.39
2019-03-31T09:45:37.535Z,101248.01
2019-03-31T09:48:05.492Z,101258.98
2019-03-31T09:50:33.512Z,101260.50
2019-03-31T09:53:01.552Z,101260.22
2019-03-31T09:55:29.547Z,101250.29
2019-03-31T09:57:57.622Z,101248.95
2019-03-31T10:00:45.764Z,101253.54
2019-03-31T10:03:13.853Z,101245.83
2019-03-31T10:05:43.168Z,101255.86
2019-03-31T10:08:11.197Z,101249.27
2019-03-31T10:10:39.462Z,101250.29
2019-03-31T10:13:07.607Z,101249.16
2019-03-31T10:15:35.769Z,101249.91
2019-03-31T10:18:03.812Z,101255.97
2019-03-31T10:20:32.192Z,101251.11
2019-03-31T10:23:00.153Z,101253.45
2019-03-31T10:25:28.179Z,101253.42
2019-03-31T10:27:56.217Z,101253.98
2019-03-31T10:30:42.525Z,101260.30
2019-03-31T10:33:10.473Z,101258.42
2019-03-31T10:35:38.577Z,101261.23
2019-03-31T10:38:08.217Z,101260.77
2019-03-31T10:40:36.241Z,101257.56
2019-03-31T10:43:04.337Z,101258.23
2019-03-31T10:45:32.358Z,101258.45
2019-03-31T10:48:00.335Z,101264.91
2019-03-31T10:50:28.321Z,101270.80
2019-03-31T10:52:56.664Z,101261.25
2019-03-31T10:55:27.062Z,101267.34
2019-03-31T10:57:55.262Z,101268.06
2019-03-31T11:00:34.804Z,101263.25
2019-03-31T11:03:03.666Z,101264.17
2019-03-31T11:05:31.812Z,101253.80
2019-03-31T11:07:59.871Z,101247.84
2019-03-31T11:10:28.655Z,101252.82
2019-03-31T11:12:56.632Z,101263.55
2019-03-31T11:15:25.221Z,101266.89
2019-03-31T11:17:53.446Z,101265.08
2019-03-31T11:20:21.492Z,101266.19
2019-03-31T11:22:56.907Z,101266.33
2019-03-31T11:25:29.125Z,101256.63
2019-03-31T11:27:54.896Z,101258.75
2019-03-31T11:30:22.986Z,101259.40
2019-03-31T11:32:50.928Z,101259.12
2019-03-31T11:35:18.967Z,101254.94
2019-03-31T11:37:46.974Z,101244.94
2019-03-31T11:40:15.285Z,101251.39
2019-03-31T11:42:43.684Z,101255.30
2019-03-31T11:45:12.118Z,101255.20
2019-03-31T11:47:40.217Z,101256.84
2019-03-31T11:50:11.443Z,101250.84
2019-03-31T11:52:40.021Z,101258.80
2019-03-31T11:55:08.290Z,101263.98
2019-03-31T11:57:37.376Z,101270.25
2019-03-31T12:00:08.587Z,101250.00
2019-03-31T12:02:36.708Z,101251.78
2019-03-31T12:05:06.329Z,101254.54
2019-03-31T12:07:46.003Z,101253.64
2019-03-31T12:10:05.466Z,101252.14
2019-03-31T12:12:33.867Z,101240.42
2019-03-31T12:15:01.973Z,101240.24
2019-03-31T12:17:30.066Z,101241.48
2019-03-31T12:19:58.099Z,101228.12
2019-03-31T12:22:26.217Z,101212.26
2019-03-31T12:24:54.251Z,101204.30
2019-03-31T12:27:22.371Z,101212.17
2019-03-31T12:29:50.444Z,101204.70
2019-03-31T12:32:18.731Z,101210.41
2019-03-31T12:34:46.787Z,101205.17
2019-03-31T12:37:14.861Z,101205.95
2019-03-31T12:39:42.987Z,101217.59
2019-03-31T12:42:11.071Z,101192.98
2019-03-31T12:44:39.437Z,101193.97
2019-03-31T12:47:07.611Z,101197.46
2019-03-31T12:49:35.850Z,101221.08
2019-03-31T12:52:03.950Z,101208.12
2019-03-31T12:54:32.096Z,101204.52
2019-03-31T12:57:00.430Z,101201.26
2019-03-31T12:59:28.542Z,101198.98
2019-03-31T13:01:56.732Z,101194.07
2019-03-31T13:04:25.058Z,101209.58
2019-03-31T13:06:53.406Z,101206.20
2019-03-31T13:09:21.591Z,101204.17
2019-03-31T13:11:50.537Z,101195.96
2019-03-31T13:14:18.951Z,101192.27
2019-03-31T13:16:49.546Z,101198.41
2019-03-31T13:19:17.697Z,101197.62
2019-03-31T13:21:45.849Z,101195.91
2019-03-31T13:24:14.035Z,101203.58
2019-03-31T13:26:42.159Z,101207.64
2019-03-31T13:29:10.404Z,101203.31
2019-03-31T13:31:38.702Z,101192.05
2019-03-31T13:34:09.042Z,101174.89
2019-03-31T13:36:37.093Z,101186.32
2019-03-31T13:39:07.391Z,101166.20
2019-03-31T13:41:35.492Z,101173.09
2019-03-31T13:44:03.772Z,101177.33
2019-03-31T13:46:32.006Z,101175.66
2019-03-31T13:49:00.241Z,101158.22
2019-03-31T13:51:28.282Z,101147.91
2019-03-31T13:53:56.382Z,101149.78
2019-03-31T13:56:24.422Z,101174.16
2019-03-31T13:58:52.856Z,101172.77
2019-03-31T14:01:21.118Z,101178.11
2019-03-31T14:03:49.357Z,101172.16
2019-03-31T14:06:17.752Z,101174.56
2019-03-31T14:08:45.959Z,101168.70
2019-03-31T14:11:14.417Z,101180.84
2019-03-31T14:13:42.752Z,101192.33
2019-03-31T14:16:10.988Z,101198.88
2019-03-31T14:18:39.307Z,101173.05
2019-03-31T14:21:07.667Z,101156.23
2019-03-31T14:23:36.152Z,101158.20
2019-03-31T14:26:04.287Z,101168.87
2019-03-31T14:28:32.500Z,101162.70
2019-03-31T14:31:00.914Z,101174.25
2019-03-31T14:33:29.186Z,101177.33
2019-03-31T14:35:57.670Z,101165.80
2019-03-31T14:38:39.589Z,101165.87
2019-03-31T14:40:56.442Z,101171.62
2019-03-31T14:43:27.835Z,101174.14
2019-03-31T14:45:55.032Z,101175.59
2019-03-31T14:48:23.346Z,101175.48
2019-03-31T14:50:51.502Z,101173.16
2019-03-31T14:53:19.883Z,101163.18
2019-03-31T14:55:48.293Z,101162.20
2019-03-31T14:58:16.717Z,101163.96
2019-03-31T15:00:44.993Z,101160.91
2019-03-31T15:03:13.463Z,101152.39
2019-03-31T15:05:41.951Z,101151.50
2019-03-31T15:08:10.422Z,101157.39
2019-03-31T15:10:38.847Z,101147.18
2019-03-31T15:13:07.593Z,101148.33
2019-03-31T15:15:36.502Z,101147.86
2019-03-31T15:18:05.155Z,101150.93
2019-03-31T15:20:33.730Z,101147.61
2019-03-31T15:23:02.393Z,101152.80
2019-03-31T15:25:30.729Z,101144.63
2019-03-31T15:27:59.457Z,101156.88
2019-03-31T15:30:27.970Z,101151.87
2019-03-31T15:32:56.207Z,101163.84
2019-03-31T15:35:24.782Z,101166.38
2019-03-31T15:37:53.320Z,101167.77
2019-03-31T15:40:21.797Z,101159.92
2019-03-31T15:42:50.322Z,101162.40
2019-03-31T15:45:18.883Z,101171.28
2019-03-31T15:47:47.361Z,101150.41
2019-03-31T15:50:15.872Z,101164.41
2019-03-31T15:52:44.838Z,101148.19
2019-03-31T15:55:13.527Z,101150.95
2019-03-31T15:57:42.282Z,101145.21
2019-03-31T16:00:11.225Z,101150.69
2019-03-31T16:02:39.881Z,101157.73
2019-03-31T16:05:08.830Z,101146.95
2019-03-31T16:07:37.227Z,101152.44
2019-03-31T16:10:06.057Z,101157.27
2019-03-31T16:12:34.013Z,101157.70
2019-03-31T16:15:02.007Z,101151.47
2019-03-31T16:17:30.067Z,101147.31
2019-03-31T16:19:57.854Z,101137.80
2019-03-31T16:22:25.742Z,101147.84
2019-03-31T16:24:56.312Z,101146.44
2019-03-31T16:27:24.337Z,101146.91
2019-03-31T16:29:52.370Z,101143.19
2019-03-31T16:32:20.263Z,101149.98
2019-03-31T16:34:48.422Z,101145.80
2019-03-31T16:37:16.288Z,101147.73
2019-03-31T16:39:44.202Z,101144.30
2019-03-31T16:42:12.099Z,101149.77
2019-03-31T16:44:40.146Z,101143.50
2019-03-31T16:47:08.107Z,101150.45
2019-03-31T16:49:36.042Z,101155.27
2019-03-31T16:52:03.870Z,101161.81
2019-03-31T16:54:31.807Z,101174.83
2019-03-31T16:56:59.837Z,101169.92
2019-03-31T16:59:27.717Z,101167.44
2019-03-31T17:01:55.642Z,101170.76
2019-03-31T17:04:23.617Z,101180.60
2019-03-31T17:06:51.447Z,101177.77
2019-03-31T17:09:19.367Z,101176.19
2019-03-31T17:11:49.707Z,101172.45
2019-03-31T17:14:17.578Z,101181.48
2019-03-31T17:16:45.419Z,101180.73
2019-03-31T17:19:13.727Z,101197.33
2019-03-31T17:21:41.666Z,101192.00
2019-03-31T17:24:10.412Z,101198.96
2019-03-31T17:26:38.422Z,101196.27
2019-03-31T17:29:06.512Z,101203.47
2019-03-31T17:31:34.982Z,101197.02
2019-03-31T17:34:03.090Z,101198.97
2019-03-31T17:36:31.028Z,101206.68
2019-03-31T17:39:00.201Z,101207.27
2019-03-31T17:41:28.267Z,101211.20
2019-03-31T17:43:56.332Z,101212.34
2019-03-31T17:46:24.232Z,101207.77
2019-03-31T17:48:52.172Z,101206.81
2019-03-31T17:51:20.307Z,101204.29
2019-03-31T17:53:50.917Z,101206.42
2019-03-31T17:56:18.854Z,101218.05
2019-03-31T17:58:47.057Z,101218.70
2019-03-31T18:01:17.822Z,101225.45
2019-03-31T18:03:45.879Z,101225.63
2019-03-31T18:06:13.971Z,101239.69
2019-03-31T18:08:42.516Z,101237.88
2019-03-31T18:11:10.883Z,101241.66
2019-03-31T18:13:38.787Z,101240.67
2019-03-31T18:16:06.817Z,101241.04
2019-03-31T18:18:34.857Z,101246.09
2019-03-31T18:21:02.867Z,101249.88
2019-03-31T18:23:30.717Z,101253.51
2019-03-31T18:25:58.702Z,101250.16
2019-03-31T18:28:26.612Z,101260.89
2019-03-31T18:30:54.567Z,101251.32
2019-03-31T18:33:23.136Z,101257.75
2019-03-31T18:35:51.162Z,101259.78
2019-03-31T18:38:19.152Z,101265.31
2019-03-31T18:40:47.178Z,101266.45
2019-03-31T18:43:15.060Z,101272.80
2019-03-31T18:45:43.117Z,101277.61
2019-03-31T18:48:11.118Z,101276.07
2019-03-31T18:50:38.979Z,101278.49
2019-03-31T18:53:08.282Z,101280.04
2019-03-31T18:55:45.577Z,101282.95
2019-03-31T18:58:25.597Z,101297.09
2019-03-31T19:01:04.327Z,101293.40
2019-03-31T19:03:47.033Z,101300.58
2019-03-31T19:06:37.106Z,101305.61
2019-03-31T19:09:25.102Z,101299.13
2019-03-31T19:12:11.528Z,101301.37
2019-03-31T19:14:58.947Z,101305.93
2019-03-31T19:18:04.725Z,101315.11
2019-03-31T19:20:51.002Z,101308.89
2019-03-31T19:23:37.909Z,101317.74
2019-03-31T19:26:26.563Z,101322.27
2019-03-31T19:29:26.192Z,101317.03
2019-03-31T19:32:25.947Z,101322.06
2019-03-31T19:35:12.327Z,101330.28
2019-03-31T19:38:08.767Z,101329.05
2019-03-31T19:41:03.971Z,101333.18
2019-03-31T19:43:34.215Z,101337.94
2019-03-31T19:46:11.443Z,101336.94
2019-03-31T19:49:01.061Z,101335.88
2019-03-31T19:52:06.475Z,101335.25
2019-03-31T19:54:54.238Z,101336.08
2019-03-31T19:57:32.021Z,101336.61
2019-03-31T20:00:15.397Z,101343.80
2019-03-31T20:03:11.667Z,101331.44
2019-03-31T20:06:17.702Z,101339.67
2019-03-31T20:08:57.403Z,101339.09
2019-03-31T20:11:35.242Z,101344.27
2019-03-31T20:14:25.077Z,101344.48
2019-03-31T20:17:15.042Z,101349.38
2019-03-31T20:19:54.717Z,101349.22
2019-03-31T20:22:57.142Z,101354.45
2019-03-31T20:25:44.466Z,101361.14
2019-03-31T20:28:31.172Z,101370.26
2019-03-31T20:31:11.200Z,101362.11
2019-03-31T20:34:13.620Z,101369.56
2019-03-31T20:37:09.967Z,101372.31
2019-03-31T20:39:56.502Z,101374.14
2019-03-31T20:42:41.452Z,101379.04
2019-03-31T20:45:09.183Z,101373.18
2019-03-31T20:47:37.061Z,101383.56
2019-03-31T20:50:05.482Z,101385.63
2019-03-31T20:52:33.362Z,101392.39
2019-03-31T20:55:15.358Z,101387.27
2019-03-31T20:57:30.932Z,101399.06
2019-03-31T20:59:58.676Z,101396.08
2019-03-31T21:02:26.576Z,101396.55
2019-03-31T21:04:54.337Z,101402.22
2019-03-31T21:07:22.252Z,101402.09
2019-03-31T21:09:49.977Z,101412.47
2019-03-31T21:12:17.842Z,101408.28
2019-03-31T21:14:45.677Z,101413.45
2019-03-31T21:17:13.511Z,101412.66
2019-03-31T21:19:41.167Z,101413.70
2019-03-31T21:22:08.771Z,101413.23
2019-03-31T21:24:36.768Z,101422.77
2019-03-31T21:27:04.346Z,101428.88
2019-03-31T21:29:31.946Z,101426.27
2019-03-31T21:32:01.816Z,101428.03
2019-03-31T21:34:29.287Z,101428.67
2019-03-31T21:36:56.876Z,101430.95
2019-03-31T21:39:24.337Z,101428.47
2019-03-31T21:41:51.891Z,101427.89
2019-03-31T21:44:19.453Z,101434.19
2019-03-31T21:46:46.982Z,101431.97
2019-03-31T21:49:14.653Z,101433.33
2019-03-31T21:51:42.147Z,101434.30
2019-03-31T21:54:12.590Z,101428.66
2019-03-31T21:56:39.964Z,101424.97
2019-03-31T21:59:09.091Z,101423.66
2019-03-31T22:01:36.951Z,101424.13
2019-03-31T22:04:04.542Z,101426.61
2019-03-31T22:06:32.091Z,101431.91
2019-03-31T22:08:59.662Z,101433.29
2019-03-31T22:11:27.282Z,101422.70
2019-03-31T22:13:54.827Z,101420.77
2019-03-31T22:16:22.326Z,101428.66
2019-03-31T22:18:49.925Z,101426.36
2019-03-31T22:21:17.532Z,101420.30
2019-03-31T22:23:57.371Z,101414.77
2019-03-31T22:26:14.441Z,101417.88
2019-03-31T22:28:42.058Z,101421.11
2019-03-31T22:31:09.555Z,101426.89
2019-03-31T22:33:37.167Z,101420.46
2019-03-31T22:36:23.761Z,101427.98
2019-03-31T22:38:52.461Z,101431.78
2019-03-31T22:41:20.042Z,101431.63
2019-03-31T22:43:48.462Z,101429.86
2019-03-31T22:46:15.992Z,101433.42
2019-03-31T22:48:43.667Z,101430.74
2019-03-31T22:51:11.253Z,101431.05
2019-03-31T22:53:38.812Z,101432.03
2019-03-31T22:56:07.383Z,101427.63
2019-03-31T22:58:35.002Z,101429.42
2019-03-31T23:01:02.728Z,101417.73
2019-03-31T23:03:30.521Z,101415.86
2019-03-31T23:05:58.441Z,101397.61
2019-03-31T23:08:26.210Z,101401.17
2019-03-31T23:10:53.701Z,101403.50
2019-03-31T23:13:21.202Z,101396.22
2019-03-31T23:15:48.607Z,101405.34
2019-03-31T23:18:17.627Z,101393.95
2019-03-31T23:20:45.077Z,101390.95
2019-03-31T23:23:12.467Z,101392.03
2019-03-31T23:25:39.917Z,101389.44
2019-03-31T23:28:07.306Z,101385.23
2019-03-31T23:30:34.726Z,101384.38
2019-03-31T23:33:02.437Z,101383.70
2019-03-31T23:35:29.867Z,101382.54
2019-03-31T23:37:57.242Z,101382.28
2019-03-31T23:40:26.606Z,101378.69
2019-03-31T23:42:53.982Z,101373.25
2019-03-31T23:45:21.407Z,101380.14
2019-03-31T23:47:48.794Z,101381.55
2019-03-31T23:50:16.247Z,101386.70
2019-03-31T23:52:43.626Z,101379.94
2019-03-31T23:55:11.157Z,101381.38
2019-03-31T23:57:39.086Z,101375.51
